createdAt,value
2019-05-11T00:00:21.990Z,8.00
2019-05-11T00:02:50.757Z,8.00
2019-05-11T00:05:21.075Z,8.10
2019-05-11T00:07:50.398Z,8.10
2019-05-11T00:10:23.640Z,8.00
2019-05-11T00:12:52.307Z,8.00
2019-05-11T00:15:30.109Z,8.00
2019-05-11T00:17:58.823Z,8.00
2019-05-11T00:20:27.578Z,8.00
2019-05-11T00:22:56.121Z,8.00
2019-05-11T00:25:24.815Z,8.00
2019-05-11T00:27:58.157Z,8.00
2019-05-11T00:30:26.871Z,8.00
2019-05-11T00:32:55.417Z,8.00
2019-05-11T00:35:26.647Z,8.00
2019-05-11T00:37:55.313Z,8.00
2019-05-11T00:40:24.231Z,7.90
2019-05-11T00:42:57.198Z,7.90
2019-05-11T00:45:27.122Z,7.80
2019-05-11T00:47:59.583Z,7.80
2019-05-11T00:50:38.869Z,7.80
2019-05-11T00:53:04.278Z,7.80
2019-05-11T00:55:36.229Z,7.70
2019-05-11T00:58:04.934Z,7.60
2019-05-11T01:00:33.833Z,7.60
2019-05-11T01:03:05.687Z,7.50
2019-05-11T01:05:37.649Z,7.40
2019-05-11T01:08:08.637Z,7.40
2019-05-11T01:10:42.174Z,7.40
2019-05-11T01:13:07.520Z,7.40
2019-05-11T01:15:36.400Z,7.40
2019-05-11T01:18:05.144Z,7.40
2019-05-11T01:20:34.001Z,7.50
2019-05-11T01:23:08.687Z,7.50
2019-05-11T01:25:37.693Z,7.50
2019-05-11T01:28:06.931Z,7.50
2019-05-11T01:30:38.681Z,7.40
2019-05-11T01:33:09.729Z,7.50
2019-05-11T01:35:38.301Z,7.50
2019-05-11T01:38:06.913Z,7.50
2019-05-11T01:40:35.548Z,7.50
2019-05-11T01:43:04.251Z,7.50
2019-05-11T01:45:36.141Z,7.40
2019-05-11T01:48:04.826Z,7.40
2019-05-11T01:50:33.572Z,7.40
2019-05-11T01:53:03.676Z,7.40
2019-05-11T01:55:32.326Z,7.40
2019-05-11T01:58:00.992Z,7.40
2019-05-11T02:00:29.687Z,7.40
2019-05-11T02:02:58.579Z,7.50
2019-05-11T02:05:32.842Z,7.50
2019-05-11T02:08:02.257Z,7.50
2019-05-11T02:10:31.320Z,7.50
2019-05-11T02:13:00.072Z,7.60
2019-05-11T02:15:28.794Z,7.50
2019-05-11T02:17:57.427Z,7.50
2019-05-11T02:20:27.538Z,7.50
2019-05-11T02:22:56.308Z,7.60
2019-05-11T02:25:25.008Z,7.60
2019-05-11T02:27:53.738Z,7.70
2019-05-11T02:30:23.523Z,7.70
2019-05-11T02:32:52.762Z,7.80
2019-05-11T02:35:21.603Z,7.70
2019-05-11T02:37:51.960Z,7.80
2019-05-11T02:40:21.474Z,7.70
2019-05-11T02:42:50.117Z,7.70
2019-05-11T02:45:23.236Z,7.70
2019-05-11T02:47:52.219Z,7.70
2019-05-11T02:50:20.892Z,7.70
2019-05-11T02:52:49.594Z,7.70
2019-05-11T02:55:18.225Z,7.50
2019-05-11T02:57:46.915Z,7.50
2019-05-11T03:00:18.563Z,7.50
2019-05-11T03:02:47.133Z,7.60
2019-05-11T03:05:15.878Z,7.60
2019-05-11T03:07:45.863Z,7.60
2019-05-11T03:10:17.552Z,7.60
2019-05-11T03:12:47.689Z,7.60
2019-05-11T03:15:16.596Z,7.60
2019-05-11T03:17:45.428Z,7.60
2019-05-11T03:20:14.166Z,7.50
2019-05-11T03:22:42.757Z,7.50
2019-05-11T03:25:11.547Z,7.50
2019-05-11T03:27:40.479Z,7.40
2019-05-11T03:30:09.553Z,7.40
2019-05-11T03:32:38.198Z,7.40
2019-05-11T03:35:07.135Z,7.40
2019-05-11T03:37:35.739Z,7.40
2019-05-11T03:40:06.758Z,7.40
2019-05-11T03:42:35.498Z,7.40
2019-05-11T03:45:05.908Z,7.40
2019-05-11T03:47:34.479Z,7.40
2019-05-11T03:50:03.729Z,7.40
2019-05-11T03:52:32.365Z,7.50
2019-05-11T03:55:00.929Z,7.50
2019-05-11T03:57:29.666Z,7.40
2019-05-11T03:59:58.376Z,7.40
2019-05-11T04:02:29.077Z,7.40
2019-05-11T04:04:57.902Z,7.40
2019-05-11T04:07:26.646Z,7.40
2019-05-11T04:09:55.298Z,7.50
2019-05-11T04:12:33.968Z,7.50
2019-05-11T04:14:54.335Z,7.50
2019-05-11T04:17:23.049Z,7.50
2019-05-11T04:19:53.175Z,7.50
2019-05-11T04:22:21.819Z,7.60
2019-05-11T04:24:50.517Z,7.60
2019-05-11T04:27:20.787Z,7.60
2019-05-11T04:29:49.368Z,7.60
2019-05-11T04:32:17.998Z,7.70
2019-05-11T04:34:46.665Z,7.70
2019-05-11T04:37:15.382Z,7.70
2019-05-11T04:39:44.080Z,7.70
2019-05-11T04:42:14.290Z,7.70
2019-05-11T04:44:42.915Z,7.60
2019-05-11T04:47:14.527Z,7.60
2019-05-11T04:49:43.193Z,7.60
2019-05-11T04:52:12.167Z,7.50
2019-05-11T04:54:40.816Z,7.50
2019-05-11T04:57:09.483Z,7.60
2019-05-11T04:59:38.177Z,7.60
2019-05-11T05:02:06.809Z,7.60
2019-05-11T05:04:35.677Z,7.60
2019-05-11T05:07:05.489Z,7.60
2019-05-11T05:09:36.148Z,7.60
2019-05-11T05:12:08.541Z,7.60
2019-05-11T05:14:35.264Z,7.70
2019-05-11T05:17:04.627Z,7.70
2019-05-11T05:19:33.300Z,7.70
2019-05-11T05:22:04.637Z,7.80
2019-05-11T05:24:33.288Z,7.90
2019-05-11T05:27:02.197Z,7.90
2019-05-11T05:29:30.813Z,7.90
2019-05-11T05:31:59.459Z,8.00
2019-05-11T05:34:28.128Z,8.00
2019-05-11T05:36:57.233Z,8.00
2019-05-11T05:39:26.026Z,8.10
2019-05-11T05:41:57.595Z,8.20
2019-05-11T05:44:28.015Z,8.10
2019-05-11T05:46:56.994Z,8.00
2019-05-11T05:49:25.809Z,8.00
2019-05-11T05:51:58.046Z,8.00
2019-05-11T05:54:24.749Z,8.00
2019-05-11T05:56:53.476Z,7.90
2019-05-11T05:59:22.177Z,7.90
2019-05-11T06:01:51.385Z,7.90
2019-05-11T06:04:22.682Z,7.90
2019-05-11T06:06:54.262Z,8.00
2019-05-11T06:09:22.895Z,8.00
2019-05-11T06:11:51.494Z,8.00
2019-05-11T06:14:20.071Z,8.20
2019-05-11T06:16:48.706Z,8.20
2019-05-11T06:19:17.449Z,8.30
2019-05-11T06:21:46.082Z,8.40
2019-05-11T06:24:16.379Z,8.50
2019-05-11T06:26:47.885Z,8.50
2019-05-11T06:29:16.602Z,8.60
2019-05-11T06:31:45.302Z,8.70
2019-05-11T06:34:13.909Z,8.70
2019-05-11T06:36:45.568Z,8.80
2019-05-11T06:39:17.472Z,8.90
2019-05-11T06:41:46.164Z,9.00
2019-05-11T06:44:15.072Z,9.20
2019-05-11T06:46:43.842Z,9.30
2019-05-11T06:49:12.594Z,9.40
2019-05-11T06:51:43.019Z,9.40
2019-05-11T06:54:24.247Z,9.50
2019-05-11T06:56:44.192Z,9.50
2019-05-11T06:59:15.597Z,9.50
2019-05-11T07:01:44.312Z,9.50
2019-05-11T07:04:13.067Z,9.50
2019-05-11T07:06:41.712Z,9.50
2019-05-11T07:09:10.643Z,9.50
2019-05-11T07:11:39.479Z,9.40
2019-05-11T07:14:20.077Z,9.40
2019-05-11T07:16:38.419Z,9.30
2019-05-11T07:19:09.043Z,9.30
2019-05-11T07:21:39.509Z,9.20
2019-05-11T07:24:08.235Z,9.10
2019-05-11T07:26:36.918Z,9.00
2019-05-11T07:29:05.617Z,9.00
2019-05-11T07:31:34.457Z,8.90
2019-05-11T07:34:04.603Z,8.90
2019-05-11T07:36:33.235Z,8.80
2019-05-11T07:39:02.133Z,8.90
2019-05-11T07:41:31.434Z,8.90
2019-05-11T07:44:00.647Z,8.80
2019-05-11T07:46:29.705Z,8.80
2019-05-11T07:49:00.811Z,8.80
2019-05-11T07:51:29.450Z,8.70
2019-05-11T07:54:04.235Z,8.70
2019-05-11T07:56:33.337Z,8.90
2019-05-11T07:59:03.662Z,8.90
2019-05-11T08:01:32.297Z,8.90
2019-05-11T08:04:00.897Z,9.00
2019-05-11T08:06:29.668Z,8.90
2019-05-11T08:09:01.312Z,9.00
2019-05-11T08:11:31.676Z,9.00
2019-05-11T08:14:07.770Z,9.00
2019-05-11T08:16:39.846Z,9.00
2019-05-11T08:19:10.691Z,9.00
2019-05-11T08:21:39.791Z,9.00
2019-05-11T08:24:09.098Z,9.10
2019-05-11T08:26:39.656Z,9.10
2019-05-11T08:29:08.448Z,9.10
2019-05-11T08:31:40.137Z,9.10
2019-05-11T08:34:09.018Z,9.00
2019-05-11T08:36:38.063Z,9.00
2019-05-11T08:39:08.238Z,9.00
2019-05-11T08:41:38.394Z,9.10
2019-05-11T08:44:08.873Z,9.00
2019-05-11T08:46:38.876Z,9.10
2019-05-11T08:49:08.882Z,9.10
2019-05-11T08:51:40.059Z,9.10
2019-05-11T08:54:10.160Z,9.20
2019-05-11T08:56:41.673Z,9.30
2019-05-11T08:59:12.795Z,9.30
2019-05-11T09:01:48.231Z,9.30
2019-05-11T09:04:18.262Z,9.40
2019-05-11T09:06:54.792Z,9.50
2019-05-11T09:09:23.763Z,9.50
2019-05-11T09:11:52.638Z,9.50
2019-05-11T09:14:21.399Z,9.60
2019-05-11T09:16:51.602Z,9.60
2019-05-11T09:19:20.703Z,9.60
2019-05-11T09:21:49.710Z,9.60
2019-05-11T09:24:19.078Z,9.70
2019-05-11T09:26:48.489Z,9.70
2019-05-11T09:29:20.560Z,9.70
2019-05-11T09:31:55.282Z,9.80
2019-05-11T09:34:24.126Z,9.80
2019-05-11T09:36:54.660Z,9.80
2019-05-11T09:39:23.934Z,9.70
2019-05-11T09:41:53.076Z,9.70
2019-05-11T09:44:21.963Z,9.70
2019-05-11T09:47:05.079Z,9.70
2019-05-11T09:49:40.043Z,9.60
2019-05-11T09:51:58.730Z,9.60
2019-05-11T09:54:28.958Z,9.60
2019-05-11T09:56:58.644Z,9.70
2019-05-11T09:59:28.193Z,9.80
2019-05-11T10:01:58.979Z,9.80
2019-05-11T10:04:28.866Z,9.80
2019-05-11T10:06:58.514Z,9.80
2019-05-11T10:09:28.198Z,9.80
2019-05-11T10:12:01.574Z,9.80
2019-05-11T10:14:31.720Z,9.80
2019-05-11T10:17:03.094Z,9.90
2019-05-11T10:19:35.837Z,10.00
2019-05-11T10:22:07.845Z,10.10
2019-05-11T10:24:38.318Z,10.20
2019-05-11T10:27:08.515Z,10.30
2019-05-11T10:29:38.214Z,10.30
2019-05-11T10:32:07.982Z,10.20
2019-05-11T10:34:38.706Z,10.30
2019-05-11T10:37:10.448Z,10.30
2019-05-11T10:39:39.446Z,10.40
2019-05-11T10:42:09.753Z,10.10
2019-05-11T10:44:38.650Z,10.20
2019-05-11T10:47:08.191Z,10.10
2019-05-11T10:49:39.278Z,10.20
2019-05-11T10:52:13.245Z,10.20
2019-05-11T10:54:45.000Z,10.30
2019-05-11T10:57:19.831Z,10.30
2019-05-11T10:59:48.958Z,10.40
2019-05-11T11:02:27.687Z,10.30
2019-05-11T11:04:58.859Z,10.40
2019-05-11T11:07:29.592Z,10.40
2019-05-11T11:09:58.243Z,10.50
2019-05-11T11:12:27.918Z,10.60
2019-05-11T11:14:58.669Z,10.60
2019-05-11T11:17:37.975Z,10.70
2019-05-11T11:20:08.815Z,10.80
2019-05-11T11:22:43.879Z,10.70
2019-05-11T11:25:10.603Z,10.70
2019-05-11T11:27:41.022Z,10.60
2019-05-11T11:30:10.533Z,10.50
2019-05-11T11:32:40.897Z,10.40
2019-05-11T11:35:12.619Z,10.30
2019-05-11T11:37:41.285Z,10.30
2019-05-11T11:40:12.333Z,10.20
2019-05-11T11:42:47.842Z,10.10
2019-05-11T11:45:12.225Z,10.10
2019-05-11T11:47:45.543Z,10.20
2019-05-11T11:50:18.847Z,10.10
2019-05-11T11:52:47.815Z,10.10
2019-05-11T11:55:18.615Z,9.90
2019-05-11T11:57:49.002Z,9.90
2019-05-11T12:00:18.469Z,9.80
2019-05-11T12:02:49.027Z,9.70
2019-05-11T12:05:17.791Z,9.70
2019-05-11T12:07:49.037Z,9.60
2019-05-11T12:10:28.676Z,9.60
2019-05-11T12:12:58.107Z,9.50
2019-05-11T12:15:29.833Z,9.50
2019-05-11T12:17:58.917Z,9.40
2019-05-11T12:20:29.607Z,9.50
2019-05-11T12:23:01.310Z,9.30
2019-05-11T12:25:40.834Z,9.20
2019-05-11T12:28:09.731Z,9.20
2019-05-11T12:30:39.693Z,9.20
2019-05-11T12:33:08.858Z,9.20
2019-05-11T12:35:39.587Z,9.20
2019-05-11T12:38:12.743Z,9.10
2019-05-11T12:40:41.417Z,9.10
2019-05-11T12:43:10.381Z,9.10
2019-05-11T12:45:41.431Z,9.00
2019-05-11T12:48:12.884Z,9.00
2019-05-11T12:50:48.251Z,9.00
2019-05-11T12:53:18.432Z,9.00
2019-05-11T12:55:48.398Z,9.10
2019-05-11T12:58:28.136Z,9.10
2019-05-11T13:01:02.595Z,9.00
2019-05-11T13:03:34.175Z,9.00
2019-05-11T13:06:08.190Z,9.00
2019-05-11T13:08:38.879Z,8.90
2019-05-11T13:11:08.225Z,8.90
2019-05-11T13:13:37.816Z,9.00
2019-05-11T13:16:08.748Z,9.00
2019-05-11T13:18:38.637Z,9.10
2019-05-11T13:21:18.373Z,9.10
2019-05-11T13:23:49.846Z,9.10
2019-05-11T13:26:19.031Z,9.00
2019-05-11T13:28:53.468Z,9.00
2019-05-11T13:31:27.792Z,9.00
2019-05-11T13:33:58.513Z,9.10
2019-05-11T13:36:28.620Z,9.20
2019-05-11T13:39:02.686Z,9.20
2019-05-11T13:41:32.835Z,9.20
2019-05-11T13:44:08.830Z,9.20
2019-05-11T13:46:39.819Z,9.10
2019-05-11T13:49:10.696Z,9.10
2019-05-11T13:51:41.567Z,9.00
2019-05-11T13:54:11.635Z,8.90
2019-05-11T13:56:40.286Z,8.90
2019-05-11T13:59:10.972Z,8.80
2019-05-11T14:01:39.687Z,8.90
2019-05-11T14:04:17.919Z,8.90
2019-05-11T14:06:47.962Z,8.90
2019-05-11T14:09:20.293Z,8.90
2019-05-11T14:11:51.538Z,8.90
2019-05-11T14:14:20.697Z,8.80
2019-05-11T14:16:49.573Z,8.80
2019-05-11T14:19:19.379Z,8.80
2019-05-11T14:21:52.155Z,8.80
2019-05-11T14:24:22.354Z,8.80
2019-05-11T14:26:58.023Z,8.70
2019-05-11T14:29:27.740Z,8.70
2019-05-11T14:32:00.489Z,8.80
2019-05-11T14:34:31.761Z,8.70
2019-05-11T14:37:03.252Z,8.60
2019-05-11T14:39:38.362Z,8.70
2019-05-11T14:42:22.029Z,8.80
2019-05-11T14:44:48.344Z,8.80
2019-05-11T14:47:20.352Z,8.80
2019-05-11T14:49:59.089Z,8.70
2019-05-11T14:52:28.083Z,8.70
2019-05-11T14:54:58.539Z,8.70
2019-05-11T14:57:44.984Z,8.60
2019-05-11T15:00:15.154Z,8.60
2019-05-11T15:02:49.081Z,8.70
2019-05-11T15:05:23.049Z,8.70
2019-05-11T15:07:52.966Z,8.70
2019-05-11T15:10:22.666Z,8.60
2019-05-11T15:12:51.384Z,8.60
2019-05-11T15:15:23.299Z,8.70
2019-05-11T15:17:52.276Z,8.70
2019-05-11T15:20:22.715Z,8.70
2019-05-11T15:22:51.538Z,8.80
2019-05-11T15:25:22.396Z,8.80
2019-05-11T15:27:51.043Z,8.70
2019-05-11T15:30:20.597Z,8.80
2019-05-11T15:32:52.718Z,8.70
2019-05-11T15:35:32.910Z,8.70
2019-05-11T15:38:01.836Z,8.80
2019-05-11T15:40:31.989Z,8.70
2019-05-11T15:43:00.890Z,8.70
2019-05-11T15:45:32.311Z,8.70
2019-05-11T15:48:01.333Z,8.80
2019-05-11T15:50:39.723Z,8.80
2019-05-11T15:53:08.743Z,8.80
2019-05-11T15:55:42.318Z,8.80
2019-05-11T15:58:11.919Z,8.80
2019-05-11T16:00:40.667Z,8.80
2019-05-11T16:03:11.794Z,8.80
2019-05-11T16:05:41.816Z,8.90
2019-05-11T16:08:10.872Z,8.90
2019-05-11T16:10:41.747Z,8.90
2019-05-11T16:13:10.708Z,8.90
2019-05-11T16:15:40.922Z,9.00
2019-05-11T16:18:12.082Z,9.10
2019-05-11T16:20:40.336Z,9.00
2019-05-11T16:23:09.001Z,9.00
2019-05-11T16:25:38.244Z,9.00
2019-05-11T16:28:10.354Z,9.00
2019-05-11T16:30:40.203Z,9.00
2019-05-11T16:33:10.397Z,9.00
2019-05-11T16:35:43.370Z,9.00
2019-05-11T16:38:13.864Z,9.00
2019-05-11T16:40:42.628Z,9.00
2019-05-11T16:43:13.113Z,9.00
2019-05-11T16:45:43.111Z,8.90
2019-05-11T16:48:11.655Z,8.90
2019-05-11T16:50:40.367Z,9.00
2019-05-11T16:53:11.806Z,8.90
2019-05-11T16:55:48.603Z,8.90
2019-05-11T16:58:19.768Z,8.90
2019-05-11T17:00:49.227Z,8.90
2019-05-11T17:03:18.236Z,8.80
2019-05-11T17:05:50.062Z,8.90
2019-05-11T17:08:18.934Z,8.80
2019-05-11T17:10:59.281Z,8.80
2019-05-11T17:13:30.077Z,8.90
2019-05-11T17:15:58.522Z,8.80
2019-05-11T17:18:30.356Z,8.70
2019-05-11T17:20:59.195Z,8.80
2019-05-11T17:23:30.932Z,8.80
2019-05-11T17:26:01.152Z,8.70
2019-05-11T17:28:32.650Z,8.80
2019-05-11T17:31:08.221Z,8.80
2019-05-11T17:33:40.190Z,8.70
2019-05-11T17:36:10.453Z,8.70
2019-05-11T17:38:39.202Z,8.70
2019-05-11T17:41:11.054Z,8.70
2019-05-11T17:43:39.682Z,8.80
2019-05-11T17:46:08.324Z,8.70
2019-05-11T17:48:38.859Z,8.70
2019-05-11T17:51:20.453Z,8.70
2019-05-11T17:53:39.215Z,8.70
2019-05-11T17:56:08.180Z,8.70
2019-05-11T17:58:42.813Z,8.70
2019-05-11T18:01:18.666Z,8.70
2019-05-11T18:03:50.341Z,8.60
2019-05-11T18:06:22.594Z,8.60
2019-05-11T18:08:52.425Z,8.60
2019-05-11T18:11:21.571Z,8.60
2019-05-11T18:13:53.583Z,8.60
2019-05-11T18:16:26.104Z,8.60
2019-05-11T18:18:54.935Z,8.50
2019-05-11T18:21:27.951Z,8.50
2019-05-11T18:24:09.113Z,8.50
2019-05-11T18:26:38.308Z,8.50
2019-05-11T18:29:07.063Z,8.50
2019-05-11T18:31:38.380Z,8.50
2019-05-11T18:34:09.270Z,8.50
2019-05-11T18:36:38.287Z,8.50
2019-05-11T18:39:08.321Z,8.50
2019-05-11T18:41:39.250Z,8.50
2019-05-11T18:44:10.970Z,8.60
2019-05-11T18:46:42.681Z,8.60
2019-05-11T18:49:11.600Z,8.60
2019-05-11T18:51:40.239Z,8.70
2019-05-11T18:54:10.068Z,8.70
2019-05-11T18:56:38.783Z,8.70
2019-05-11T18:59:08.901Z,8.70
2019-05-11T19:01:39.519Z,8.70
2019-05-11T19:04:18.383Z,8.70
2019-05-11T19:06:48.524Z,8.70
2019-05-11T19:09:20.424Z,8.70
2019-05-11T19:11:55.261Z,8.70
2019-05-11T19:14:28.115Z,8.60
2019-05-11T19:16:58.222Z,8.50
2019-05-11T19:19:28.881Z,8.40
2019-05-11T19:21:58.722Z,8.30
2019-05-11T19:24:30.602Z,8.30
2019-05-11T19:27:03.430Z,8.20
2019-05-11T19:29:37.956Z,8.20
2019-05-11T19:32:10.814Z,8.20
2019-05-11T19:34:38.868Z,8.10
2019-05-11T19:37:08.594Z,8.10
2019-05-11T19:39:38.452Z,8.00
2019-05-11T19:42:09.630Z,8.00
2019-05-11T19:44:38.625Z,8.00
2019-05-11T19:47:13.454Z,7.90
2019-05-11T19:49:42.238Z,7.80
2019-05-11T19:52:11.193Z,7.70
2019-05-11T19:54:39.902Z,7.60
2019-05-11T19:57:10.547Z,7.60
2019-05-11T19:59:50.984Z,7.60
2019-05-11T20:02:22.356Z,7.60
2019-05-11T20:04:51.065Z,7.60
2019-05-11T20:07:21.348Z,7.50
2019-05-11T20:09:50.288Z,7.60
2019-05-11T20:12:19.591Z,7.60
2019-05-11T20:14:51.359Z,7.60
2019-05-11T20:17:21.835Z,7.60
2019-05-11T20:19:50.547Z,7.60
2019-05-11T20:22:20.369Z,7.60
2019-05-11T20:24:58.489Z,7.60
2019-05-11T20:27:31.054Z,7.60
2019-05-11T20:30:02.688Z,7.60
2019-05-11T20:32:31.327Z,7.60
2019-05-11T20:35:00.113Z,7.60
2019-05-11T20:37:30.820Z,7.60
2019-05-11T20:39:59.878Z,7.60
2019-05-11T20:42:28.557Z,7.50
2019-05-11T20:45:01.041Z,7.50
2019-05-11T20:47:32.721Z,7.50
2019-05-11T20:50:07.914Z,7.50
2019-05-11T20:52:43.487Z,7.40
2019-05-11T20:55:13.150Z,7.40
2019-05-11T20:57:43.872Z,7.30
2019-05-11T21:00:13.573Z,7.30
2019-05-11T21:02:45.642Z,7.30
2019-05-11T21:05:26.048Z,7.20
2019-05-11T21:07:57.949Z,7.20
2019-05-11T21:10:28.050Z,7.10
2019-05-11T21:13:03.654Z,7.10
2019-05-11T21:15:35.497Z,7.00
2019-05-11T21:18:07.769Z,6.90
2019-05-11T21:20:38.598Z,6.90
2019-05-11T21:23:15.318Z,6.90
2019-05-11T21:25:47.322Z,6.80
2019-05-11T21:28:16.240Z,6.70
2019-05-11T21:31:04.071Z,6.70
2019-05-11T21:33:29.087Z,6.70
2019-05-11T21:36:00.792Z,6.60
2019-05-11T21:38:38.501Z,6.60
2019-05-11T21:41:08.848Z,6.60
2019-05-11T21:43:43.224Z,6.60
2019-05-11T21:46:12.085Z,6.50
2019-05-11T21:48:51.678Z,6.50
2019-05-11T21:51:23.622Z,6.50
2019-05-11T21:54:02.347Z,6.40
2019-05-11T21:56:41.581Z,6.40
2019-05-11T21:59:10.203Z,6.30
2019-05-11T22:01:39.398Z,6.30
2019-05-11T22:04:11.187Z,6.30
2019-05-11T22:06:39.233Z,6.30
2019-05-11T22:09:09.351Z,6.20
2019-05-11T22:11:39.743Z,6.20
2019-05-11T22:14:08.431Z,6.20
2019-05-11T22:16:38.739Z,6.20
2019-05-11T22:19:17.629Z,6.20
2019-05-11T22:21:49.685Z,6.20
2019-05-11T22:24:18.716Z,6.20
2019-05-11T22:26:47.429Z,6.20
2019-05-11T22:29:24.444Z,6.20
2019-05-11T22:31:54.726Z,6.20
2019-05-11T22:34:23.428Z,6.20
2019-05-11T22:36:52.518Z,6.20
2019-05-11T22:39:30.526Z,6.10
2019-05-11T22:42:05.456Z,6.10
2019-05-11T22:44:35.995Z,6.10
2019-05-11T22:47:04.534Z,6.10
2019-05-11T22:49:35.378Z,6.10
2019-05-11T22:52:04.249Z,6.10
2019-05-11T22:54:34.058Z,6.10
2019-05-11T22:57:04.238Z,6.10
2019-05-11T22:59:32.943Z,6.10
2019-05-11T23:02:03.191Z,6.10
2019-05-11T23:04:32.661Z,6.10
2019-05-11T23:07:01.287Z,6.00
2019-05-11T23:09:31.658Z,6.00
2019-05-11T23:12:01.144Z,6.00
2019-05-11T23:14:30.065Z,6.00
2019-05-11T23:16:58.893Z,6.00
2019-05-11T23:19:27.943Z,6.00
2019-05-11T23:21:58.731Z,6.00
2019-05-11T23:24:28.707Z,6.00
2019-05-11T23:26:57.682Z,6.00
2019-05-11T23:29:27.929Z,6.00
2019-05-11T23:31:58.346Z,6.00
2019-05-11T23:34:28.248Z,5.90
2019-05-11T23:37:00.337Z,5.90
2019-05-11T23:39:31.813Z,5.90
2019-05-11T23:42:01.638Z,5.80
2019-05-11T23:44:32.848Z,5.80
2019-05-11T23:47:09.511Z,5.70
2019-05-11T23:49:38.076Z,5.70
2019-05-11T23:52:07.638Z,5.70
2019-05-11T23:54:44.082Z,5.70
2019-05-11T23:57:12.719Z,5.70
2019-05-11T23:59:42.806Z,5.60
